Latest Coastal Weather Observations for Christmas Island

IDW60701

Issued at 4:43 am WST Tuesday 21 November 2017 (issued every 10 minutes, with the page automatically refreshed every 10 minutes)

About coastal observations | Map of coastal stations | Coastal observations for WA | Marine services | Other Formats
Station Details ID: 200790 Name: CHRISTMAS ISLAND AERO Lat: -10.45 Lon: 105.69 Height: 261.0 m
Data from the previous 72 hours. | See also: Recent months at Christmas Island
Date/Time
WST
Temp
°C
Wind Pressure Rain since
9am
mm
Weather Cloud Vis
km
Sea
Height
m
Swell
Dir  Spd
kts
Gust
kts
hPa Trend Height
m
Period
s
Dir
21/04:30am 24.1 SE 9 14 1010.1 - 9.6 - Partly cloudy 10 - - - -
21/04:19am 24.2 SE 9 15 1010.2 - 9.6 - Partly cloudy 10 - - - -
21/04:00am 23.9 SE 10 15 1008.7 - 9.2 - Cloudy 2 - - - -
21/03:52am 24.0 SE 8 11 1010.2 - 5.8 - Partly cloudy 5 - - - -
21/03:37am 24.1 ENE 4 6 1010.2 - 3.0 - Partly cloudy 10 - - - -
21/03:30am 24.1 ENE 5 9 1010.2 - 3.0 - Partly cloudy 7 - - - -
21/03:25am 24.0 E 6 9 1010.2 - 3.0 - Partly cloudy 6 - - - -
21/03:20am 24.1 E 7 10 1010.2 - 2.8 - Partly cloudy 8 - - - -
21/03:00am 24.0 ESE 10 13 1010.3 - 2.2 - Partly cloudy 6 - - - -
21/02:30am 24.2 ESE 9 12 1010.5 - 1.2 - Partly cloudy 10 - - - -
21/02:00am 24.3 ESE 6 10 1010.9 - 1.2 - Partly cloudy 10 - - - -
21/01:30am 24.2 ESE 5 8 1011.2 - 1.2 - Partly cloudy 10 - - - -
21/01:00am 23.9 ESE 6 11 1010.2 - 1.2 - Cloudy 10 - - - -
21/12:30am 23.5 CALM 0 3 1012.3 - 1.2 - Partly cloudy 10 - - - -
21/12:23am 23.6 CALM 0 4 1012.4 - 1.2 - Partly cloudy 10 - - - -
21/12:00am 23.1 SSE 4 6 1012.8 - 1.2 - Partly cloudy 9 - - - -
 
Date/Time
WST
Temp
°C
Wind Pressure Rain since
9am
mm
Weather Cloud Vis
km
Sea
Height
m
Swell
Dir  Spd
kts
Gust
kts
hPa Trend Height
m
Period
s
Dir
20/11:53pm 23.0 SE 6 9 1012.8 - 1.2 - Partly cloudy 7 - - - -
20/11:46pm 23.0 ESE 7 11 1012.9 - 1.0 - Partly cloudy 7 - - - -
20/11:41pm 23.0 ESE 8 12 1012.9 - 1.0 - Partly cloudy 6 - - - -
20/11:39pm 23.1 ESE 8 12 1013.0 - 1.0 - Partly cloudy 7 - - - -
20/11:30pm 23.4 ESE 10 14 1013.1 - 0.8 - Partly cloudy 7 - - - -
20/11:26pm 23.6 ESE 10 14 1013.1 - 0.8 - Cloudy 1 - - - -
20/11:17pm 23.9 ESE 10 14 1013.2 - 0.8 - Partly cloudy 0.8 - - - -
20/11:00pm 24.1 SE 9 14 1013.1 - 0.8 - Partly cloudy 6 - - - -
20/10:59pm 24.0 SE 9 14 1013.1 - 0.8 - Cloudy 6 - - - -
20/10:53pm 24.3 SE 9 15 1013.1 - 0.8 - Partly cloudy 9 - - - -
20/10:37pm 24.6 SE 8 14 1013.0 - 0.8 - Partly cloudy 6 - - - -
20/10:30pm 24.6 ESE 8 12 1013.0 - 0.0 - Partly cloudy 10 - - - -
20/10:00pm 24.5 SE 8 11 1011.5 - 0.0 - Cloudy 10 - - - -
20/09:30pm 25.0 SE 4 8 1012.9 - 0.0 - Partly cloudy 10 - - - -
20/09:00pm 24.8 SE 5 8 1012.7 - 0.0 - Partly cloudy 10 - - - -
20/08:30pm 24.9 SSE 5 7 1012.5 - 0.0 - Partly cloudy 10 - - - -
20/08:00pm 24.9 SE 6 8 1012.2 - 0.0 - Partly cloudy 10 - - - -
20/07:30pm 24.8 SE 3 6 1011.6 - 0.0 - - 10 - - - -
20/07:00pm 25.2 SSE 4 6 1009.9 - 0.0 - Mostly clear 10 - - - -
20/06:30pm 25.8 SE 5 9 1011.3 - 0.0 - Partly cloudy 10 - - - -
20/06:00pm 26.3 SSE 6 10 1011.0 - 0.0 - Partly cloudy 10 - - - -
20/05:30pm 26.6 SSE 7 10 1010.9 - 0.0 - Partly cloudy 10 - - - -
20/05:00pm 26.8 SSE 7 10 1010.8 - 0.0 - - 10 - - - -
20/04:30pm 26.8 SSE 6 11 1010.8 - 0.0 - Partly cloudy 10 - - - -
20/04:00pm 26.8 SSE 7 11 1009.5 - 0.0 - - 10 - - - -
20/03:30pm 27.6 SSE 7 12 1011.0 - 0.0 - Partly cloudy 10 - - - -
20/03:00pm 27.6 S 7 12 1011.3 - 0.0 - - 10 - - - -
20/02:30pm 27.6 S 8 14 1011.6 - 0.0 - - 10 - - - -
20/02:00pm 28.1 SE 8 13 1011.9 - 0.0 - - 10 - - - -
20/01:30pm 27.5 SSE 8 15 1012.3 - 0.0 - - 10 - - - -
20/01:00pm 27.1 SSE 8 14 1010.9 - 0.0 - Mostly clear 10 - - - -
20/12:30pm 27.7 SSE 8 12 1012.8 - 0.0 - - 10 - - - -
20/12:00pm 28.2 SE 7 11 1012.8 - 0.0 - - 10 - - - -
20/11:30am 27.5 SSE 8 12 1013.1 - 0.0 - - 10 - - - -
20/11:00am 27.5 SSE 7 13 1013.2 - 0.0 - - 10 - - - -
20/10:30am 27.6 SSE 7 11 1013.3 - 0.0 - - 10 - - - -
20/10:00am 27.4 SSE 6 11 1011.8 - 0.0 - Mostly clear 10 - - - -
20/09:30am 27.1 SSE 7 11 1013.3 - 0.0 - Partly cloudy 10 - - - -
20/09:00am 26.9 S 6 9 1013.2 - 0.0 - Partly cloudy 10 - - - -
20/08:30am 26.2 S 5 9 1012.8 - 0.0 - Partly cloudy 10 - - - -
20/08:00am 25.3 S 5 9 1012.4 - 0.0 - Partly cloudy 10 - - - -
20/07:30am 24.1 SW 4 6 1012.1 - 0.0 - Partly cloudy 10 - - - -
20/07:21am 24.1 SW 3 6 1011.9 - 0.0 - Partly cloudy 10 - - - -
20/07:10am 23.8 SW 4 6 1011.7 - 0.0 - Partly cloudy 10 - - - -
20/07:00am 23.7 SW 4 6 1010.0 - 0.0 - Mostly cloudy 10 - - - -
20/06:30am 23.4 SSE 3 5 1011.0 - 0.0 - Partly cloudy 10 - - - -
20/06:00am 23.5 S 3 5 1010.8 - 0.0 - Partly cloudy 10 - - - -
20/05:30am 23.6 SSE 4 7 1010.7 - 0.0 - Partly cloudy 10 - - - -
20/05:00am 23.3 S 2 5 1010.6 - 0.0 - Partly cloudy 10 - - - -
20/04:30am 23.2 SE 3 4 1010.5 - 0.0 - - 10 - - - -
20/04:00am 23.2 SSE 4 5 1009.0 - 0.0 - - 10 - - - -
20/03:30am 23.0 SE 3 5 1010.9 - 0.0 - Partly cloudy 10 - - - -
20/03:00am 22.9 SE 2 4 1011.1 - 0.0 - - 10 - - - -
20/02:30am 23.0 SSE 3 4 1011.3 - 0.0 - Partly cloudy 10 - - - -
20/02:00am 22.9 SE 3 5 1011.6 - 0.0 - Partly cloudy 10 - - - -
20/01:30am 23.0 CALM 0 0 1012.1 - 0.0 - Partly cloudy 10 - - - -
20/01:00am 23.0 CALM 0 0 1010.9 - 0.0 - Partly cloudy 10 - - - -
20/12:30am 23.2 SSE 3 5 1012.9 - 0.0 - - 10 - - - -
20/12:00am 23.2 SE 3 5 1013.0 - 0.0 - - 10 - - - -
 
Date/Time
WST
Temp
°C
Wind Pressure Rain since
9am
mm
Weather Cloud Vis
km
Sea
Height
m
Swell
Dir  Spd
kts
Gust
kts
hPa Trend Height
m
Period
s
Dir
19/11:30pm 23.5 SSE 3 4 1013.2 - 0.0 - Partly cloudy 10 - - - -
19/11:00pm 23.3 SE 4 5 1013.4 - 0.0 - - 10 - - - -
19/10:30pm 23.4 SE 3 5 1013.3 - 0.0 - Partly cloudy 10 - - - -
19/10:00pm 23.5 SSE 3 5 1011.6 - 0.0 - Mostly clear 10 - - - -
19/09:30pm 23.6 SSE 3 5 1013.1 - 0.0 - Partly cloudy 10 - - - -
19/09:00pm 23.7 SSE 3 5 1012.9 - 0.0 - Partly cloudy 10 - - - -
19/08:30pm 23.6 SSE 2 4 1012.5 - 0.0 - Partly cloudy 10 - - - -
19/08:00pm 23.9 SSE 3 6 1012.1 - 0.0 - - 10 - - - -
19/07:30pm 24.2 SE 4 6 1011.4 - 0.0 - - 10 - - - -
19/07:00pm 24.6 SE 4 6 1009.5 - 0.0 - - 10 - - - -
19/06:30pm 25.2 SE 5 9 1010.7 - 0.0 - - 10 - - - -
19/06:00pm 25.8 SE 5 7 1010.5 - 0.0 - - 10 - - - -
19/05:30pm 26.1 SSE 6 9 1010.2 - 0.0 - - 10 - - - -
19/05:00pm 26.4 SSE 6 8 1010.0 - 0.0 - - 10 - - - -
19/04:30pm 26.1 SE 7 12 1010.2 - 0.0 - Partly cloudy 10 - - - -
19/04:00pm 26.9 SSE 6 11 1008.9 - 0.0 - Mostly clear 10 - - - -
19/03:30pm 27.0 S 6 9 1010.7 - 0.0 - Partly cloudy 10 - - - -
19/03:00pm 26.9 SE 7 11 1010.9 - 0.0 - - 10 - - - -
19/02:00pm 27.3 ESE 8 13 1011.5 - 0.0 - - 10 - - - -
19/01:30pm 27.4 SE 8 12 1011.9 - 0.0 - - 10 - - - -
19/01:00pm 27.7 SE 7 13 1010.6 - 0.0 - Mostly clear 10 - - - -
19/12:30pm 27.9 SE 6 11 1012.5 - 0.0 - Partly cloudy 10 - - - -
19/12:00pm 28.0 SSE 6 10 1012.6 - 0.0 - Partly cloudy 10 - - - -
19/11:30am 26.5 SSE 6 11 1012.7 - 0.0 - Partly cloudy 10 - - - -
19/11:00am 26.8 SSE 6 9 1012.8 - 0.0 - Partly cloudy 10 - - - -
19/10:30am 26.6 S 6 10 1012.8 - 0.0 - Partly cloudy 10 - - - -
19/10:00am 26.7 SE 7 11 1011.1 - 0.0 - Mostly clear 10 - - - -
19/09:30am 26.4 S 6 9 1012.6 - 0.0 - Partly cloudy 10 - - - -
19/09:00am 26.2 SSE 5 8 1012.5 - 0.0 - Partly cloudy 10 - - - -
19/08:30am 25.9 SSE 6 9 1012.2 - 0.0 - Partly cloudy 10 - - - -
19/08:00am 25.4 SSE 5 9 1011.8 - 0.0 - - 10 - - - -
19/07:30am 24.6 SSE 3 7 1011.6 - 0.0 - - 10 - - - -
19/07:00am 22.1 S 3 5 1009.8 - 0.0 - Mostly clear 10 - - - -
19/06:30am 21.6 S 3 4 1011.0 - 0.0 - Partly cloudy 10 - - - -
19/06:00am 21.8 S 2 4 1010.6 - 0.0 - Partly cloudy 10 - - - -
19/05:30am 22.2 SSW 3 4 1010.5 - 0.0 - - 10 - - - -
19/05:00am 22.4 SSW 4 5 1010.4 - 0.0 - Partly cloudy 10 - - - -
19/04:30am 22.6 S 3 5 1010.5 - 0.0 - Partly cloudy 10 - - - -
19/04:00am 22.6 S 3 5 1009.1 - 0.0 - Partly cloudy 10 - - - -
19/03:30am 22.6 SE 2 4 1010.7 - 0.0 - Partly cloudy 10 - - - -
19/03:00am 22.0 SSW 3 5 1010.9 - 0.0 - - 10 - - - -
19/02:30am 21.9 SSW 3 4 1011.2 - 0.0 - Partly cloudy 10 - - - -
19/02:00am 22.0 SSW 3 5 1011.7 - 0.0 - Partly cloudy 10 - - - -
19/01:30am 21.7 S 2 3 1012.2 - 0.0 - Partly cloudy 10 - - - -
19/01:00am 21.9 S 3 4 1011.0 - 0.0 - Mostly clear 10 - - - -
19/12:30am 21.9 S 3 4 1012.9 - 0.0 - - 10 - - - -
19/12:00am 22.3 S 3 4 1013.0 - 0.0 - Partly cloudy 10 - - - -
 
Date/Time
WST
Temp
°C
Wind Pressure Rain since
9am
mm
Weather Cloud Vis
km
Sea
Height
m
Swell
Dir  Spd
kts
Gust
kts
hPa Trend Height
m
Period
s
Dir
18/11:30pm 22.8 S 2 3 1013.1 - 0.0 - Partly cloudy 10 - - - -
18/11:00pm 23.2 SSE 2 5 1013.0 - 0.0 - Partly cloudy 10 - - - -
18/10:30pm 23.6 S 3 5 1013.0 - 0.0 - Partly cloudy 10 - - - -
18/10:00pm 23.8 S 4 7 1011.1 - 0.0 - Partly cloudy 10 - - - -
18/09:30pm 23.7 S 4 7 1012.5 - 0.0 - Partly cloudy 10 - - - -
18/09:00pm 23.5 SSE 4 8 1012.2 - 0.0 - Partly cloudy 10 - - - -
18/08:30pm 23.5 SSE 3 6 1011.8 - 0.0 - Partly cloudy 10 - - - -
18/08:00pm 23.8 SE 5 8 1011.3 - 0.0 - Partly cloudy 10 - - - -
18/07:30pm 24.0 SSE 4 7 1010.9 - 0.0 - Partly cloudy 10 - - - -
18/07:00pm 24.3 SSE 5 8 1009.0 - 0.0 - Mostly cloudy 10 - - - -
18/06:30pm 24.7 SSE 6 10 1010.3 - 0.0 - Partly cloudy 10 - - - -
18/06:00pm 25.1 SE 7 10 1010.0 - 0.0 - Partly cloudy 10 - - - -
18/05:30pm 25.5 SSE 6 10 1009.7 - 0.0 - Partly cloudy 10 - - - -
18/05:00pm 25.9 SSE 6 11 1009.6 - 0.0 - Partly cloudy 10 - - - -
18/04:30pm 26.0 SSE 7 12 1009.9 - 0.0 - Partly cloudy 10 - - - -
18/04:00pm 26.0 SE 7 11 1008.5 - 0.0 - Cloudy 10 - - - -
18/03:30pm 26.1 SE 7 12 1010.4 - 0.0 - Partly cloudy 10 - - - -
18/03:00pm 26.9 SE 8 11 1010.6 - 0.0 - Partly cloudy 10 - - - -
18/02:30pm 25.8 SE 7 11 1011.0 - 0.0 - Partly cloudy 10 - - - -
18/02:00pm 25.9 E 7 10 1011.4 - 0.0 - Cloudy 10 - - - -
18/01:30pm 26.0 E 6 9 1011.7 - 0.0 - Partly cloudy 10 - - - -
18/01:00pm 25.9 E 7 12 1010.5 - 0.0 - Cloudy 10 - - - -
18/12:30pm 26.2 ESE 8 12 1012.2 - 0.0 - Partly cloudy 10 - - - -
18/12:00pm 26.0 E 8 11 1012.4 - 0.0 - Partly cloudy 10 - - - -
18/11:30am 26.3 ESE 8 11 1012.4 - 0.0 - Partly cloudy 10 - - - -
18/11:00am 26.4 SE 8 13 1012.6 - 0.0 - Partly cloudy 10 - - - -
18/10:30am 26.5 SSE 8 12 1012.7 - 0.0 - Partly cloudy 10 - - - -
18/10:00am 27.2 ESE 7 11 1011.2 - 0.0 - Partly cloudy 10 - - - -
18/09:30am 26.6 S 5 9 1012.7 - 0.0 - Partly cloudy 10 - - - -
18/09:00am 26.0 S 5 9 1012.4 - 0.0 - Partly cloudy 10 - - - -
18/08:30am 25.7 SE 6 8 1012.1 - 0.0 - - 10 - - - -
18/08:00am 24.8 SSE 3 5 1012.1 - 0.0 - - 10 - - - -
18/07:30am 22.1 CALM 0 0 1011.7 - 0.0 - - 10 - - - -
18/07:00am 21.2 SW 2 3 1009.8 - 0.0 - - 10 - - - -
18/06:30am 21.1 SW 1 3 1010.9 - 0.0 - - 10 - - - -
18/06:00am 21.5 SW 3 5 1010.8 - 0.0 - - 10 - - - -

Other Formats:

Comma delimited format used in spreadsheet applications
http://www.bom.gov.au/fwo/IDW60701/IDW60701.96995.axf

JavaScript Object Notation format (JSON) in row-major order
http://www.bom.gov.au/fwo/IDW60701/IDW60701.96995.json